createdAt,value
2022-09-18T00:01:34.513Z,1.90
2022-09-18T00:04:04.814Z,1.77
2022-09-18T00:06:35.111Z,1.90
2022-09-18T00:09:05.902Z,1.90
2022-09-18T00:11:38.350Z,2.00
2022-09-18T00:14:07.222Z,1.67
2022-09-18T00:16:35.824Z,1.70
2022-09-18T00:19:04.343Z,2.10
2022-09-18T00:21:35.817Z,1.90
2022-09-18T00:24:09.561Z,1.60
2022-09-18T00:26:39.168Z,1.90
2022-09-18T00:29:07.355Z,1.98
2022-09-18T00:31:37.716Z,1.90
2022-09-18T00:34:08.733Z,1.75
2022-09-18T00:36:37.316Z,1.88
2022-09-18T00:39:05.841Z,1.98
2022-09-18T00:41:36.456Z,1.60
2022-09-18T00:44:35.695Z,1.83
2022-09-18T00:47:17.301Z,1.75
2022-09-18T00:49:49.168Z,1.88
2022-09-18T00:52:19.740Z,1.70
2022-09-18T00:54:51.983Z,1.63
2022-09-18T00:57:23.421Z,2.00
2022-09-18T00:59:54.149Z,2.00
2022-09-18T01:02:22.671Z,2.08
2022-09-18T01:04:51.350Z,1.90
2022-09-18T01:07:36.113Z,1.63
2022-09-18T01:10:14.918Z,1.90
2022-09-18T01:12:53.906Z,2.00
2022-09-18T01:15:32.011Z,1.60
2022-09-18T01:18:06.994Z,1.83
2022-09-18T01:20:52.396Z,1.83
2022-09-18T01:23:48.927Z,1.80
2022-09-18T01:26:30.499Z,1.90
2022-09-18T01:29:05.608Z,1.80
2022-09-18T01:31:39.938Z,1.95
2022-09-18T01:34:14.826Z,1.83
2022-09-18T01:36:47.214Z,2.05
2022-09-18T01:39:22.030Z,1.65
2022-09-18T01:41:52.837Z,1.85
2022-09-18T01:44:29.338Z,1.77
2022-09-18T01:46:59.791Z,1.80
2022-09-18T01:49:34.178Z,1.88
2022-09-18T01:52:06.562Z,1.88
2022-09-18T01:54:38.273Z,2.28
2022-09-18T01:57:11.963Z,1.92
2022-09-18T01:59:45.005Z,2.60
2022-09-18T02:02:20.312Z,1.95
2022-09-18T02:04:54.152Z,2.55
2022-09-18T02:07:28.298Z,2.92
2022-09-18T02:09:58.417Z,2.30
2022-09-18T02:12:33.811Z,1.50
2022-09-18T02:15:10.568Z,1.75
2022-09-18T02:17:44.289Z,1.67
2022-09-18T02:20:18.132Z,1.80
2022-09-18T02:22:47.238Z,1.92
2022-09-18T02:25:19.887Z,2.00
2022-09-18T02:27:50.410Z,1.65
2022-09-18T02:30:20.774Z,1.85
2022-09-18T02:32:48.786Z,1.70
2022-09-18T02:35:16.838Z,2.00
2022-09-18T02:37:56.481Z,1.98
2022-09-18T02:40:34.348Z,1.80
2022-09-18T02:43:18.344Z,1.75
2022-09-18T02:45:54.941Z,1.55
2022-09-18T02:48:41.908Z,1.80
2022-09-18T02:51:16.630Z,1.58
2022-09-18T02:53:51.314Z,2.08
2022-09-18T02:56:24.680Z,1.70
2022-09-18T02:58:57.033Z,1.77
2022-09-18T03:01:28.537Z,2.00
2022-09-18T03:03:56.754Z,1.98
2022-09-18T03:06:25.002Z,2.03
2022-09-18T03:08:52.953Z,1.92
2022-09-18T03:11:20.841Z,1.58
2022-09-18T03:13:48.937Z,1.70
2022-09-18T03:16:19.015Z,1.60
2022-09-18T03:18:48.728Z,1.63
2022-09-18T03:21:16.699Z,1.85
2022-09-18T03:23:45.699Z,1.83
2022-09-18T03:26:14.185Z,1.77
2022-09-18T03:28:59.048Z,1.80
2022-09-18T03:31:27.250Z,1.73
2022-09-18T03:33:56.842Z,2.00
2022-09-18T03:36:24.733Z,1.70
2022-09-18T03:38:53.089Z,1.52
2022-09-18T03:41:22.592Z,1.77
2022-09-18T03:43:51.115Z,1.58
2022-09-18T03:46:23.503Z,1.95
2022-09-18T03:48:52.323Z,1.88
2022-09-18T03:51:21.819Z,2.13
2022-09-18T03:53:51.364Z,1.80
2022-09-18T03:56:19.415Z,1.70
2022-09-18T03:58:47.413Z,1.90
2022-09-18T04:01:15.423Z,2.10
2022-09-18T04:03:43.338Z,1.90
2022-09-18T04:06:11.374Z,1.80
2022-09-18T04:08:41.062Z,1.90
2022-09-18T04:11:08.995Z,2.00
2022-09-18T04:13:36.798Z,2.40
2022-09-18T04:16:12.251Z,2.15
2022-09-18T04:18:40.942Z,1.98
2022-09-18T04:21:20.042Z,2.13
2022-09-18T04:23:54.611Z,1.70
2022-09-18T04:26:23.098Z,1.80
2022-09-18T04:28:51.072Z,1.58
2022-09-18T04:31:19.159Z,2.10
2022-09-18T04:33:47.183Z,2.03
2022-09-18T04:36:15.306Z,2.88
2022-09-18T04:38:43.219Z,1.92
2022-09-18T04:41:12.882Z,2.03
2022-09-18T04:43:40.841Z,2.15
2022-09-18T04:46:09.672Z,3.90
2022-09-18T04:48:37.740Z,4.45
2022-09-18T04:51:05.705Z,3.78
2022-09-18T04:53:35.446Z,3.30
2022-09-18T04:56:03.670Z,2.75
2022-09-18T04:58:33.014Z,1.88
2022-09-18T05:01:01.273Z,1.90
2022-09-18T05:03:29.871Z,2.17
2022-09-18T05:05:57.892Z,2.00
2022-09-18T05:08:25.869Z,2.17
2022-09-18T05:10:54.403Z,2.33
2022-09-18T05:13:22.375Z,2.13
2022-09-18T05:15:56.297Z,2.10
2022-09-18T05:18:24.911Z,2.67
2022-09-18T05:20:53.330Z,2.45
2022-09-18T05:23:21.722Z,2.30
2022-09-18T05:25:49.622Z,2.22
2022-09-18T05:28:19.287Z,2.50
2022-09-18T05:30:47.232Z,2.63
2022-09-18T05:33:16.662Z,2.60
2022-09-18T05:35:44.510Z,2.80
2022-09-18T05:38:13.866Z,2.72
2022-09-18T05:40:42.000Z,2.63
2022-09-18T05:43:10.112Z,2.30
2022-09-18T05:45:47.369Z,2.33
2022-09-18T05:48:16.653Z,2.05
2022-09-18T05:50:44.892Z,2.60
2022-09-18T05:53:14.183Z,2.55
2022-09-18T05:55:44.806Z,2.20
2022-09-18T05:58:14.641Z,2.65
2022-09-18T06:00:44.711Z,2.58
2022-09-18T06:03:14.111Z,2.60
2022-09-18T06:05:44.530Z,2.50
2022-09-18T06:08:13.689Z,2.80
2022-09-18T06:10:42.258Z,3.22
2022-09-18T06:13:13.792Z,3.17
2022-09-18T06:15:45.057Z,3.10
2022-09-18T06:18:14.610Z,3.00
2022-09-18T06:20:45.030Z,3.00
2022-09-18T06:23:13.264Z,3.70
2022-09-18T06:25:50.397Z,3.47
2022-09-18T06:28:19.108Z,5.65
2022-09-18T06:30:48.766Z,2.83
2022-09-18T06:33:18.441Z,3.83
2022-09-18T06:35:49.276Z,3.50
2022-09-18T06:38:17.690Z,3.20
2022-09-18T06:40:53.058Z,3.65
2022-09-18T06:43:21.705Z,4.03
2022-09-18T06:45:53.598Z,3.80
2022-09-18T06:48:21.932Z,3.90
2022-09-18T06:50:55.860Z,3.47
2022-09-18T06:53:24.223Z,3.30
2022-09-18T06:55:52.280Z,3.60
2022-09-18T06:58:21.145Z,3.75
2022-09-18T07:00:49.325Z,3.63
2022-09-18T07:03:17.263Z,3.67
2022-09-18T07:05:48.518Z,3.30
2022-09-18T07:08:17.771Z,3.45
2022-09-18T07:10:45.677Z,3.63
2022-09-18T07:13:13.874Z,3.28
2022-09-18T07:15:41.888Z,3.58
2022-09-18T07:18:09.977Z,3.30
2022-09-18T07:20:38.304Z,3.08
2022-09-18T07:23:06.232Z,4.00
2022-09-18T07:25:36.048Z,3.42
2022-09-18T07:28:10.175Z,3.65
2022-09-18T07:30:39.171Z,3.05
2022-09-18T07:33:08.946Z,3.03
2022-09-18T07:35:37.611Z,2.97
2022-09-18T07:38:09.729Z,2.60
2022-09-18T07:40:40.522Z,2.72
2022-09-18T07:43:10.116Z,2.88
2022-09-18T07:45:44.267Z,2.70
2022-09-18T07:48:12.493Z,2.20
2022-09-18T07:50:40.854Z,3.45
2022-09-18T07:53:09.106Z,2.40
2022-09-18T07:55:38.415Z,2.60
2022-09-18T07:58:10.208Z,2.20
2022-09-18T08:00:40.649Z,2.30
2022-09-18T08:03:13.779Z,2.40
2022-09-18T08:05:42.939Z,2.40
2022-09-18T08:08:14.144Z,2.17
2022-09-18T08:10:45.615Z,2.38
2022-09-18T08:13:15.003Z,2.10
2022-09-18T08:15:46.005Z,1.92
2022-09-18T08:18:13.901Z,2.00
2022-09-18T08:20:43.612Z,1.80
2022-09-18T08:23:12.640Z,1.90
2022-09-18T08:25:41.959Z,1.80
2022-09-18T08:28:11.285Z,1.50
2022-09-18T08:30:42.132Z,2.00
2022-09-18T08:33:11.967Z,1.60
2022-09-18T08:35:42.081Z,1.70
2022-09-18T08:38:12.070Z,1.60
2022-09-18T08:41:00.987Z,1.60
2022-09-18T08:43:45.715Z,1.50
2022-09-18T08:46:18.510Z,1.60
2022-09-18T08:48:56.635Z,1.60
2022-09-18T08:51:32.227Z,1.40
2022-09-18T08:54:18.118Z,1.50
2022-09-18T08:56:47.384Z,1.50
2022-09-18T08:59:22.774Z,1.40
2022-09-18T09:02:01.579Z,1.30
2022-09-18T09:04:30.049Z,1.48
2022-09-18T09:07:10.836Z,1.23
2022-09-18T09:09:53.334Z,1.02
2022-09-18T09:12:31.581Z,1.40
2022-09-18T09:15:35.369Z,1.27
2022-09-18T09:18:18.035Z,1.20
2022-09-18T09:20:53.496Z,1.00
2022-09-18T09:23:38.273Z,1.05
2022-09-18T09:26:09.198Z,1.10
2022-09-18T09:28:46.310Z,0.98
2022-09-18T09:31:19.090Z,0.90
2022-09-18T09:33:58.438Z,1.10
2022-09-18T09:36:29.726Z,1.00
2022-09-18T09:39:05.300Z,1.10
2022-09-18T09:41:40.555Z,1.10
2022-09-18T09:44:31.343Z,0.80
2022-09-18T09:47:12.037Z,0.88
2022-09-18T09:49:56.512Z,0.77
2022-09-18T09:52:27.516Z,0.80
2022-09-18T09:54:58.186Z,0.77
2022-09-18T09:57:31.132Z,0.63
2022-09-18T10:00:10.566Z,0.65
2022-09-18T10:02:56.345Z,0.70
2022-09-18T10:05:32.292Z,0.70
2022-09-18T10:08:24.149Z,0.50
2022-09-18T10:10:58.887Z,0.93
2022-09-18T10:13:32.114Z,0.60
2022-09-18T10:16:13.687Z,0.68
2022-09-18T10:18:47.667Z,0.60
2022-09-18T10:21:18.423Z,0.47
2022-09-18T10:23:53.658Z,0.70
2022-09-18T10:26:28.036Z,0.80
2022-09-18T10:28:57.219Z,0.60
2022-09-18T10:31:45.241Z,0.60
2022-09-18T10:34:32.915Z,0.52
2022-09-18T10:37:01.849Z,0.50
2022-09-18T10:39:32.090Z,0.52
2022-09-18T10:42:01.748Z,0.60
2022-09-18T10:44:32.222Z,0.77
2022-09-18T10:47:06.574Z,0.80
2022-09-18T10:49:41.262Z,0.80
2022-09-18T10:52:40.377Z,0.75
2022-09-18T10:55:16.318Z,0.70
2022-09-18T10:57:46.661Z,0.70
2022-09-18T11:00:39.963Z,0.70
2022-09-18T11:03:30.509Z,0.55
2022-09-18T11:06:03.491Z,0.80
2022-09-18T11:08:35.345Z,0.50
2022-09-18T11:11:07.008Z,0.80
2022-09-18T11:13:42.246Z,0.60
2022-09-18T11:16:10.391Z,0.50
2022-09-18T11:18:39.086Z,0.60
2022-09-18T11:21:09.122Z,0.70
2022-09-18T11:23:38.331Z,0.60
2022-09-18T11:26:20.777Z,0.60
2022-09-18T11:29:00.948Z,0.65
2022-09-18T11:31:40.339Z,0.80
2022-09-18T11:34:22.403Z,0.75
2022-09-18T11:36:54.629Z,0.70
2022-09-18T11:39:27.790Z,0.60
2022-09-18T11:41:56.794Z,0.60
2022-09-18T11:44:28.586Z,0.60
2022-09-18T11:47:23.995Z,0.60
2022-09-18T11:49:56.559Z,0.73
2022-09-18T11:52:30.984Z,0.70
2022-09-18T11:55:03.508Z,0.70
2022-09-18T11:57:37.230Z,0.65
2022-09-18T12:00:08.884Z,0.60
2022-09-18T12:02:45.104Z,0.60
2022-09-18T12:05:21.735Z,0.65
2022-09-18T12:07:58.792Z,0.60
2022-09-18T12:10:36.816Z,0.60
2022-09-18T12:13:25.674Z,0.60
2022-09-18T12:15:59.022Z,0.68
2022-09-18T12:18:32.331Z,0.68
2022-09-18T12:21:09.912Z,0.60
2022-09-18T12:23:39.568Z,0.60
2022-09-18T12:26:15.365Z,0.60
2022-09-18T12:29:00.798Z,0.70
2022-09-18T12:31:39.352Z,0.60
2022-09-18T12:34:21.700Z,0.60
2022-09-18T12:37:08.777Z,0.70
2022-09-18T12:39:55.978Z,0.70
2022-09-18T12:42:38.377Z,0.80
2022-09-18T12:45:36.074Z,0.70
2022-09-18T12:48:27.738Z,0.60
2022-09-18T12:51:11.645Z,0.70
2022-09-18T12:53:51.157Z,0.57
2022-09-18T12:56:39.049Z,0.60
2022-09-18T12:59:32.359Z,0.70
2022-09-18T13:02:13.391Z,0.77
2022-09-18T13:04:47.911Z,0.77
2022-09-18T13:07:22.629Z,1.10
2022-09-18T13:09:56.661Z,0.80
2022-09-18T13:12:36.589Z,0.65
2022-09-18T13:15:12.038Z,0.93
2022-09-18T13:17:46.163Z,0.77
2022-09-18T13:20:19.237Z,0.57
2022-09-18T13:22:53.280Z,0.80
2022-09-18T13:25:28.489Z,0.60
2022-09-18T13:28:33.471Z,0.88
2022-09-18T13:31:39.658Z,0.60
2022-09-18T13:34:18.801Z,0.68
2022-09-18T13:36:48.171Z,0.70
2022-09-18T13:39:20.552Z,0.80
2022-09-18T13:41:51.613Z,0.70
2022-09-18T13:44:24.821Z,0.95
2022-09-18T13:46:55.249Z,0.70
2022-09-18T13:49:29.923Z,0.70
2022-09-18T13:52:18.295Z,0.60
2022-09-18T13:55:01.697Z,0.85
2022-09-18T13:57:33.575Z,0.60
2022-09-18T14:00:12.158Z,0.80
2022-09-18T14:02:43.203Z,0.70
2022-09-18T14:05:31.004Z,0.60
2022-09-18T14:11:17.249Z,0.60
2022-09-18T14:13:51.746Z,0.70
2022-09-18T14:16:43.836Z,0.60
2022-09-18T14:19:33.144Z,0.57
2022-09-18T14:22:02.544Z,0.60
2022-09-18T14:24:56.165Z,0.80
2022-09-18T14:27:43.651Z,0.73
2022-09-18T14:30:20.975Z,0.75
2022-09-18T14:33:03.857Z,1.10
2022-09-18T14:35:38.045Z,1.00
2022-09-18T14:38:17.850Z,0.60
2022-09-18T14:40:53.353Z,0.63
2022-09-18T14:43:24.185Z,0.55
2022-09-18T14:45:52.722Z,0.52
2022-09-18T14:48:27.765Z,0.40
2022-09-18T14:51:18.448Z,0.52
2022-09-18T14:53:51.440Z,0.75
2022-09-18T14:56:24.851Z,0.60
2022-09-18T14:58:53.967Z,0.60
2022-09-18T15:01:29.952Z,0.60
2022-09-18T15:04:21.634Z,0.60
2022-09-18T15:06:55.914Z,0.60
2022-09-18T15:09:29.617Z,0.80
2022-09-18T15:12:02.640Z,0.50
2022-09-18T15:14:39.888Z,0.70
2022-09-18T15:17:18.744Z,0.80
2022-09-18T15:19:58.802Z,0.70
2022-09-18T15:22:28.256Z,0.60
2022-09-18T15:25:02.213Z,0.63
2022-09-18T15:27:33.948Z,0.60
2022-09-18T15:30:05.613Z,0.88
2022-09-18T15:32:39.179Z,0.70
2022-09-18T15:35:18.080Z,0.63
2022-09-18T15:37:54.089Z,0.80
2022-09-18T15:40:27.801Z,0.68
2022-09-18T15:43:04.261Z,0.70
2022-09-18T15:45:33.974Z,0.82
2022-09-18T15:48:23.986Z,0.93
2022-09-18T15:51:09.461Z,0.80
2022-09-18T15:53:38.595Z,0.80
2022-09-18T15:56:11.291Z,0.70
2022-09-18T15:58:45.685Z,0.70
2022-09-18T16:01:23.097Z,0.70
2022-09-18T16:04:05.580Z,0.80
2022-09-18T16:06:43.587Z,0.90
2022-09-18T16:09:30.631Z,0.80
2022-09-18T16:12:01.530Z,0.93
2022-09-18T16:14:44.760Z,0.98
2022-09-18T16:17:36.891Z,0.80
2022-09-18T16:20:30.999Z,0.88
2022-09-18T16:23:28.850Z,0.80
2022-09-18T16:26:07.294Z,0.90
2022-09-18T16:28:38.020Z,0.90
2022-09-18T16:31:06.349Z,1.10
2022-09-18T16:33:35.585Z,1.02
2022-09-18T16:36:07.835Z,1.30
2022-09-18T16:38:37.859Z,1.23
2022-09-18T16:41:06.108Z,0.80
2022-09-18T16:43:33.988Z,1.02
2022-09-18T16:46:02.707Z,1.10
2022-09-18T16:48:31.275Z,1.00
2022-09-18T16:50:59.357Z,1.00
2022-09-18T16:53:27.441Z,0.90
2022-09-18T16:55:58.698Z,0.90
2022-09-18T16:58:29.141Z,1.00
2022-09-18T17:00:58.203Z,1.35
2022-09-18T17:03:27.574Z,1.20
2022-09-18T17:05:55.775Z,1.05
2022-09-18T17:08:24.212Z,1.05
2022-09-18T17:10:52.269Z,1.02
2022-09-18T17:13:30.804Z,1.30
2022-09-18T17:16:01.774Z,1.00
2022-09-18T17:18:39.921Z,1.20
2022-09-18T17:21:13.074Z,1.10
2022-09-18T17:23:41.420Z,1.08
2022-09-18T17:26:14.257Z,1.25
2022-09-18T17:28:44.968Z,1.10
2022-09-18T17:31:17.689Z,1.08
2022-09-18T17:33:47.210Z,1.05
2022-09-18T17:36:17.142Z,0.98
2022-09-18T17:38:45.892Z,1.00
2022-09-18T17:41:16.767Z,1.00
2022-09-18T17:43:51.044Z,1.00
2022-09-18T17:46:19.488Z,1.00
2022-09-18T17:48:47.475Z,1.10
2022-09-18T17:51:18.322Z,1.17
2022-09-18T17:53:48.083Z,0.95
2022-09-18T17:56:18.182Z,0.93
2022-09-18T17:58:48.610Z,1.10
2022-09-18T18:01:18.985Z,1.13
2022-09-18T18:03:48.525Z,1.10
2022-09-18T18:06:21.524Z,1.20
2022-09-18T18:08:50.103Z,1.35
2022-09-18T18:11:22.246Z,1.40
2022-09-18T18:13:52.530Z,1.60
2022-09-18T18:16:23.305Z,1.50
2022-09-18T18:18:52.697Z,1.65
2022-09-18T18:21:21.075Z,1.80
2022-09-18T18:23:49.435Z,4.47
2022-09-18T18:26:18.585Z,4.60
2022-09-18T18:28:46.544Z,3.42
2022-09-18T18:31:17.840Z,2.50
2022-09-18T18:33:46.982Z,2.28
2022-09-18T18:36:17.428Z,2.03
2022-09-18T18:38:48.093Z,2.30
2022-09-18T18:41:17.525Z,2.40
2022-09-18T18:43:45.956Z,2.05
2022-09-18T18:46:15.637Z,1.95
2022-09-18T18:48:45.972Z,1.70
2022-09-18T18:51:17.854Z,1.40
2022-09-18T18:53:46.149Z,1.40
2022-09-18T18:56:15.646Z,1.30
2022-09-18T18:58:44.137Z,1.30
2022-09-18T19:01:14.736Z,1.30
2022-09-18T19:03:51.679Z,1.30
2022-09-18T19:06:20.575Z,1.25
2022-09-18T19:08:48.745Z,1.52
2022-09-18T19:11:18.874Z,1.50
2022-09-18T19:13:51.117Z,1.70
2022-09-18T19:16:20.932Z,1.58
2022-09-18T19:18:55.330Z,1.60
2022-09-18T19:21:26.840Z,1.90
2022-09-18T19:24:02.885Z,1.60
2022-09-18T19:26:31.796Z,1.90
2022-09-18T19:29:02.334Z,1.60
2022-09-18T19:31:31.145Z,1.60
2022-09-18T19:34:00.739Z,1.60
2022-09-18T19:36:30.559Z,1.70
2022-09-18T19:39:00.151Z,1.50
2022-09-18T19:41:39.134Z,1.67
2022-09-18T19:44:11.226Z,1.60
2022-09-18T19:46:40.074Z,1.50
2022-09-18T19:49:16.911Z,1.70
2022-09-18T19:51:45.165Z,1.60
2022-09-18T19:54:15.866Z,1.73
2022-09-18T19:56:47.966Z,2.13
2022-09-18T19:59:16.582Z,1.88
2022-09-18T20:01:44.893Z,1.60
2022-09-18T20:04:16.978Z,1.73
2022-09-18T20:06:44.863Z,1.63
2022-09-18T20:09:12.700Z,2.75
2022-09-18T20:11:41.175Z,2.38
2022-09-18T20:14:09.663Z,1.70
2022-09-18T20:16:40.378Z,2.10
2022-09-18T20:19:08.393Z,1.63
2022-09-18T20:21:37.697Z,1.45
2022-09-18T20:24:05.960Z,1.58
2022-09-18T20:26:36.890Z,1.42
2022-09-18T20:29:05.003Z,1.50
2022-09-18T20:31:33.054Z,1.40
2022-09-18T20:34:04.767Z,1.30
2022-09-18T20:36:33.615Z,1.40
2022-09-18T20:39:03.695Z,1.48
2022-09-18T20:41:32.242Z,1.65
2022-09-18T20:44:05.273Z,1.50
2022-09-18T20:46:37.132Z,1.98
2022-09-18T20:49:09.061Z,1.40
2022-09-18T20:51:37.123Z,1.50
2022-09-18T20:54:10.940Z,1.52
2022-09-18T20:56:42.158Z,1.88
2022-09-18T20:59:11.438Z,1.55
2022-09-18T21:01:42.194Z,1.60
2022-09-18T21:04:17.067Z,1.40
2022-09-18T21:06:46.834Z,1.75
2022-09-18T21:09:16.530Z,1.50
2022-09-18T21:11:45.952Z,1.73
2022-09-18T21:14:16.129Z,2.00
2022-09-18T21:16:45.037Z,1.80
2022-09-18T21:19:13.981Z,1.70
2022-09-18T21:21:42.419Z,2.15
2022-09-18T21:24:10.714Z,1.92
2022-09-18T21:26:41.873Z,1.85
2022-09-18T21:29:13.822Z,1.80
2022-09-18T21:31:43.320Z,1.83
2022-09-18T21:34:13.289Z,2.03
2022-09-18T21:36:43.602Z,1.67
2022-09-18T21:39:12.956Z,1.95
2022-09-18T21:41:46.603Z,2.25
2022-09-18T21:44:16.429Z,1.90
2022-09-18T21:46:45.929Z,1.70
2022-09-18T21:49:16.484Z,1.63
2022-09-18T21:51:44.852Z,1.83
2022-09-18T21:54:15.707Z,1.67
2022-09-18T21:56:49.583Z,1.50
2022-09-18T21:59:17.552Z,1.77
2022-09-18T22:01:46.837Z,1.40
2022-09-18T22:04:15.066Z,1.52
2022-09-18T22:06:45.313Z,1.58
2022-09-18T22:09:16.355Z,1.80
2022-09-18T22:11:46.707Z,1.67
2022-09-18T22:14:16.842Z,1.60
2022-09-18T22:16:47.196Z,1.45
2022-09-18T22:19:16.566Z,1.60
2022-09-18T22:21:46.531Z,1.80
2022-09-18T22:24:19.011Z,1.42
2022-09-18T22:26:51.313Z,1.60
2022-09-18T22:29:34.939Z,1.50
2022-09-18T22:32:27.487Z,1.52
2022-09-18T22:34:56.130Z,1.70
2022-09-18T22:37:24.951Z,1.60
2022-09-18T22:39:52.976Z,1.70
2022-09-18T22:42:22.888Z,1.65
2022-09-18T22:44:50.806Z,1.40
2022-09-18T22:47:18.768Z,1.40
2022-09-18T22:49:46.681Z,1.35
2022-09-18T22:52:14.670Z,1.52
2022-09-18T22:54:42.778Z,1.40
2022-09-18T22:57:10.670Z,1.35
2022-09-18T22:59:39.998Z,1.67
2022-09-18T23:02:08.175Z,1.42
2022-09-18T23:04:36.885Z,1.70
2022-09-18T23:07:05.265Z,1.40
2022-09-18T23:09:36.426Z,1.40
2022-09-18T23:12:04.602Z,1.65
2022-09-18T23:14:32.577Z,1.38
2022-09-18T23:17:03.101Z,1.38
2022-09-18T23:19:33.351Z,1.38
2022-09-18T23:22:02.087Z,1.40
2022-09-18T23:24:32.146Z,1.60
2022-09-18T23:27:00.354Z,1.33
2022-09-18T23:29:31.785Z,1.40
2022-09-18T23:32:01.301Z,1.40
2022-09-18T23:34:33.684Z,1.58
2022-09-18T23:37:02.547Z,1.30
2022-09-18T23:39:32.443Z,1.60
2022-09-18T23:42:02.665Z,1.58
2022-09-18T23:44:31.876Z,1.90
2022-09-18T23:47:03.192Z,1.58
2022-09-18T23:49:31.905Z,1.60
2022-09-18T23:52:00.878Z,1.55
2022-09-18T23:54:30.823Z,1.52
2022-09-18T23:56:59.217Z,1.42
2022-09-18T23:59:27.775Z,1.50
